Time;durP1;ratioP1;P1;durP2;ratioP2;P2;SDS_P1;SDS_P2;PMS_P1;PMS_P2;Temp;Humidity;BMP_temperature;BMP_pressure;BME280_temperature;BME280_humidity;BME280_pressure;Samples;Min_cycle;Max_cycle;Signal;HPM_P1;HPM_P2
2022/05/29 00:13:12;;;;;;;3.20;2.30;;;;;;;24.74;48.70;100093.27;105538;1287;74082;-91
2022/05/29 00:16:24;;;;;;;3.20;2.30;;;;;;;24.73;48.61;100082.08;104261;1286;5551024;-91
2022/05/29 00:22:19;;;;;;;4.60;2.20;;;;;;;24.94;48.43;100067.36;106147;1284;69762;-90
2022/05/29 00:27:56;;;;;;;3.10;2.10;;;;;;;24.85;48.57;100074.35;105836;1285;80700;-92
2022/05/29 00:30:57;;;;;;;3.40;2.10;;;;;;;24.81;48.35;100087.78;105972;1285;71000;-91
2022/05/29 00:33:58;;;;;;;4.40;2.30;;;;;;;24.80;48.60;100113.17;106036;1286;68940;-90
2022/05/29 00:40:13;;;;;;;2.80;1.80;;;;;;;24.77;48.37;100131.90;105810;1286;73259;-91
2022/05/29 00:43:16;;;;;;;3.30;2.10;;;;;;;24.72;48.53;100137.33;105748;1286;81848;-91
2022/05/29 00:49:07;;;;;;;3.60;2.10;;;;;;;24.72;48.70;100140.89;105717;1287;70087;-91
2022/05/29 00:55:13;;;;;;;3.90;2.30;;;;;;;24.69;48.57;100142.36;106046;1285;73785;-90
2022/05/29 01:01:06;;;;;;;3.20;2.10;;;;;;;24.66;48.80;100117.29;105767;1286;72241;-91
2022/05/29 01:04:07;;;;;;;3.30;2.20;;;;;;;24.68;48.85;100107.22;105806;1286;70084;-91
2022/05/29 01:09:53;;;;;;;2.80;2.10;;;;;;;24.66;48.79;100103.36;105901;1284;73511;-91
2022/05/29 01:15:51;;;;;;;3.60;2.30;;;;;;;24.66;48.79;100140.70;105904;1286;72431;-90
2022/05/29 01:18:55;;;;;;;3.50;2.30;;;;;;;24.67;48.85;100151.02;105808;1285;68670;-90
2022/05/29 01:24:57;;;;;;;3.80;2.20;;;;;;;24.64;48.96;100166.55;106076;1285;74740;-91
2022/05/29 01:28:16;;;;;;;5.00;2.40;;;;;;;24.62;48.69;100170.70;106102;1285;81895;-91
2022/05/29 01:34:08;;;;;;;3.60;2.40;;;;;;;24.59;48.95;100171.73;106112;1284;68183;-92
2022/05/29 01:39:45;;;;;;;4.30;2.80;;;;;;;24.56;48.89;100183.46;106083;1284;74197;-90
2022/05/29 01:42:46;;;;;;;3.00;2.30;;;;;;;24.53;48.75;100190.77;105949;1284;82094;-89
2022/05/29 01:48:39;;;;;;;2.70;2.50;;;;;;;24.56;48.99;100190.36;105828;1284;69986;-91
2022/05/29 01:51:46;;;;;;;3.80;2.90;;;;;;;24.62;48.82;100183.30;105841;1284;70001;-91
2022/05/29 01:57:30;;;;;;;4.60;2.90;;;;;;;24.62;48.77;100183.77;105934;1284;83966;-91
2022/05/29 02:03:08;;;;;;;3.30;3.00;;;;;;;24.58;48.86;100177.41;106207;1284;69894;-90
2022/05/29 02:06:11;;;;;;;3.90;3.10;;;;;;;24.60;48.64;100178.45;106257;1284;67892;-90
2022/05/29 02:11:58;;;;;;;4.00;3.00;;;;;;;24.58;48.52;100195.93;105531;1286;83574;-91
2022/05/29 02:17:46;;;;;;;3.80;3.40;;;;;;;24.55;48.73;100210.38;106302;1285;69765;-91
2022/05/29 02:23:33;;;;;;;4.50;3.30;;;;;;;24.57;48.78;100206.45;105790;1286;73471;31
2022/05/29 02:29:10;;;;;;;4.50;3.80;;;;;;;24.54;48.67;100196.79;105866;1285;72308;-90
2022/05/29 02:41:06;;;;;;;4.80;3.30;;;;;;;24.52;48.46;100191.52;105537;1286;81852;-91
2022/05/29 02:44:50;;;;;;;4.90;3.10;;;;;;;24.55;48.42;100195.89;105161;1290;71918;-91
2022/05/29 02:53:34;;;;;;;4.80;3.00;;;;;;;24.52;48.41;100207.63;105774;1285;73409;-89
2022/05/29 02:59:29;;;;;;;3.70;3.30;;;;;;;24.53;48.32;100209.86;105917;1286;72057;31
2022/05/29 03:05:37;;;;;;;4.00;3.00;;;;;;;24.52;48.27;100211.50;106206;1284;69813;-91
2022/05/29 03:11:37;;;;;;;3.20;2.70;;;;;;;24.52;48.26;100202.68;106166;1285;81882;-91
2022/05/29 03:17:16;;;;;;;4.80;3.00;;;;;;;24.53;48.08;100195.72;105832;1286;68200;-88
2022/05/29 03:23:24;;;;;;;4.00;2.40;;;;;;;24.47;47.89;100196.49;105987;1284;73488;31
2022/05/29 03:26:29;;;;;;;2.90;2.40;;;;;;;24.50;48.06;100197.29;106112;1285;82129;-89
2022/05/29 03:32:14;;;;;;;4.00;2.60;;;;;;;24.50;47.83;100185.56;105994;1284;69916;31
2022/05/29 03:38:11;;;;;;;3.20;2.20;;;;;;;24.45;47.78;100188.30;105612;1285;74747;31
2022/05/29 03:41:14;;;;;;;3.90;2.40;;;;;;;24.49;47.67;100191.59;105804;1284;82314;-86
2022/05/29 03:47:13;;;;;;;4.00;2.40;;;;;;;24.50;47.66;100182.32;105769;1286;69875;-88
2022/05/29 03:53:10;;;;;;;4.30;2.30;;;;;;;24.48;47.54;100178.59;105804;1286;73250;31
2022/05/29 03:59:12;;;;;;;4.40;2.30;;;;;;;24.48;47.26;100183.27;106037;1284;72320;31
2022/05/29 04:05:22;;;;;;;3.70;2.10;;;;;;;24.42;47.34;100195.36;106046;1285;69735;-90
2022/05/29 04:17:08;;;;;;;2.10;1.90;;;;;;;24.45;47.16;100231.23;105944;1285;67828;-91
2022/05/29 04:28:19;;;;;;;3.40;2.00;;;;;;;24.43;46.73;100229.64;105582;1284;74206;-91
2022/05/29 04:34:10;;;;;;;2.40;1.70;;;;;;;24.41;46.44;100247.27;105776;1286;67715;-90
2022/05/29 04:42:52;;;;;;;2.90;1.80;;;;;;;24.36;46.17;100253.52;106276;1284;74712;-91
2022/05/29 04:48:29;;;;;;;3.10;1.60;;;;;;;24.32;46.17;100254.98;106017;1285;69810;-91
2022/05/29 04:54:18;;;;;;;;;;;;;;;;;;;;;
2022/05/29 04:57:06;;;;;;;3.30;1.70;;;;;;;24.39;45.82;100239.70;105918;1287;72241;-89
2022/05/29 05:03:00;;;;;;;2.40;1.80;;;;;;;24.34;45.56;100241.73;105850;1286;69813;-91
2022/05/29 05:09:03;;;;;;;3.80;1.80;;;;;;;24.39;45.56;100254.41;105806;1286;81943;-91
2022/05/29 05:15:08;;;;;;;3.80;1.90;;;;;;;24.35;45.33;100261.37;105898;1285;69919;-91
2022/05/29 05:21:02;;;;;;;;;;;;;;;;;;;;;
2022/05/29 05:26:41;;;;;;;1.90;1.40;;;;;;;24.33;44.96;100243.20;105832;1284;72187;-90
2022/05/29 05:33:09;;;;;;;3.50;1.40;;;;;;;24.35;44.87;100258.08;106106;1285;69936;-90
2022/05/29 05:38:47;;;;;;;2.20;1.30;;;;;;;24.34;44.61;100272.12;105739;1286;81837;-91
2022/05/29 05:44:23;;;;;;;2.50;1.30;;;;;;;24.34;44.65;100274.02;106081;1286;69976;-91
2022/05/29 05:49:59;;;;;;;3.10;1.40;;;;;;;24.34;44.25;100277.83;105987;1285;73439;-89
2022/05/29 05:55:50;;;;;;;2.90;1.20;;;;;;;24.30;44.00;100292.95;105769;1284;72171;-91
2022/05/29 05:58:55;;;;;;;3.70;1.60;;;;;;;24.32;43.98;100299.09;106041;1284;68152;-90
2022/05/29 06:04:39;;;;;;;4.10;1.30;;;;;;;24.32;43.86;100293.82;105912;1284;73773;31
2022/05/29 06:10:20;;;;;;;2.20;1.40;;;;;;;24.27;43.73;100275.17;105933;1285;74736;-90
2022/05/29 06:13:39;;;;;;;3.70;1.40;;;;;;;24.29;43.72;100274.05;105869;1286;69916;-91
2022/05/29 06:19:48;;;;;;;3.20;1.40;;;;;;;24.29;43.67;100274.02;105863;1283;73594;31
2022/05/29 06:28:38;;;;;;;1.80;1.40;;;;;;;24.32;43.54;100302.30;105543;1284;68225;-91
2022/05/29 06:37:32;;;;;;;2.90;1.50;;;;;;;24.27;43.45;100269.94;105998;1284;82099;31
2022/05/29 06:40:45;;;;;;;4.10;1.60;;;;;;;24.29;43.47;100257.35;105906;1285;72165;-89
2022/05/29 06:46:40;;;;;;;3.90;1.70;;;;;;;24.26;43.32;100232.16;105752;1285;69998;-90
2022/05/29 06:52:40;;;;;;;2.10;1.70;;;;;;;24.25;43.31;100208.31;105912;1285;82000;31
2022/05/29 06:58:44;;;;;;;3.10;1.70;;;;;;;24.25;43.26;100239.17;106004;1285;68635;-91
2022/05/29 07:10:32;;;;;;;3.60;1.80;;;;;;;24.25;43.26;100264.83;105852;1284;72242;-89
2022/05/29 07:16:27;;;;;;;3.00;1.80;;;;;;;24.24;43.06;100258.25;105850;1284;69845;-91
2022/05/29 07:22:06;;;;;;;5.60;2.00;;;;;;;24.28;43.08;100277.66;105787;1285;81853;-90
2022/05/29 07:25:39;;;;;;;4.30;1.50;;;;;;;24.29;42.87;100275.40;105599;1286;72373;-90
2022/05/29 07:28:41;;;;;;;2.80;1.80;;;;;;;24.27;42.68;100278.42;106002;1283;70028;-90
2022/05/29 07:34:30;;;;;;;3.90;1.90;;;;;;;24.26;42.69;100289.69;106209;1284;73507;-91
2022/05/29 07:40:30;;;;;;;2.70;1.80;;;;;;;24.25;42.69;100282.31;105924;1284;72101;-88
2022/05/29 07:46:22;;;;;;;2.50;1.60;;;;;;;24.22;42.36;100281.77;105721;1286;69848;31
2022/05/29 07:52:00;;;;;;;2.10;1.60;;;;;;;24.30;42.49;100283.23;105937;1286;81623;-90
2022/05/29 07:55:15;;;;;;;4.50;1.70;;;;;;;24.31;42.39;100269.98;105726;1286;72212;-91
2022/05/29 08:01:15;;;;;;;3.00;1.50;;;;;;;24.30;42.18;100266.54;105787;1285;69723;31
2022/05/29 08:07:16;;;;;;;4.40;2.10;;;;;;;24.33;42.27;100262.30;106114;1284;81716;31
2022/05/29 08:16:17;;;;;;;2.60;1.70;;;;;;;24.30;42.15;100252.91;105961;1283;69963;31
2022/05/29 08:22:10;;;;;;;3.00;2.10;;;;;;;24.34;42.06;100267.02;106130;1283;82004;-90
2022/05/29 08:34:05;;;;;;;3.10;1.70;;;;;;;24.36;41.50;100259.14;105750;1286;73541;-89
2022/05/29 08:40:04;;;;;;;2.60;2.10;;;;;;;24.32;41.56;100266.55;106188;1283;72223;31
2022/05/29 08:46:01;;;;;;;2.10;1.50;;;;;;;24.34;41.53;100258.80;105967;1286;65915;-91
2022/05/29 08:52:15;;;;;;;3.30;1.80;;;;;;;24.30;41.35;100243.23;106257;1284;81976;-89
2022/05/29 08:58:29;;;;;;;4.10;1.90;;;;;;;24.32;41.62;100219.45;105636;1285;69804;-90
2022/05/29 09:04:22;;;;;;;3.40;2.10;;;;;;;24.32;41.34;100231.23;105983;1284;73473;-91
2022/05/29 09:10:01;;;;;;;4.60;2.10;;;;;;;24.32;41.25;100225.58;106077;1284;72427;-89
2022/05/29 09:15:45;;;;;;;6.10;2.20;;;;;;;24.33;41.27;100242.22;105622;1285;69822;-89
2022/05/29 09:21:41;;;;;;;4.10;2.00;;;;;;;24.30;41.30;100255.60;105650;1286;81818;-90
2022/05/29 09:33:43;;;;;;;3.20;2.00;;;;;;;24.28;41.22;100270.38;105949;1286;73140;-91
2022/05/29 09:39:51;;;;;;;3.40;2.00;;;;;;;24.33;41.29;100288.28;106090;1284;72109;-89
2022/05/29 09:45:49;;;;;;;4.30;2.20;;;;;;;24.27;41.31;100279.08;105836;1286;69891;-91
2022/05/29 09:55:17;;;;;;;4.30;2.00;;;;;;;24.31;41.53;100247.27;105969;1284;71399;-89
2022/05/29 09:58:19;;;;;;;2.20;1.60;;;;;;;24.29;41.24;100281.11;106123;1284;69912;-91
2022/05/29 10:04:10;;;;;;;3.40;2.30;;;;;;;24.32;41.49;100269.42;106001;1284;73609;-91
2022/05/29 10:10:14;;;;;;;2.90;1.80;;;;;;;24.31;41.20;100261.67;106253;1284;72370;-89
2022/05/29 10:13:19;;;;;;;4.70;2.30;;;;;;;24.29;41.29;100265.02;105887;1286;70063;-90
2022/05/29 10:18:57;;;;;;;4.00;2.20;;;;;;;24.37;41.36;100247.70;105908;1286;74241;-91
2022/05/29 10:21:58;;;;;;;5.20;2.10;;;;;;;24.37;41.36;100262.04;106108;1284;81977;-89
2022/05/29 10:27:48;;;;;;;2.90;2.00;;;;;;;24.37;41.63;100280.50;105602;1285;69982;-88
2022/05/29 10:39:52;;;;;;;3.20;1.80;;;;;;;24.36;41.69;100311.27;105863;1283;72343;31
2022/05/29 10:45:57;;;;;;;2.90;2.20;;;;;;;24.29;41.67;100299.25;105606;1285;67963;31
2022/05/29 10:49:13;;;;;;;3.40;2.10;;;;;;;24.29;41.93;100278.84;106073;1285;73327;-89
2022/05/29 10:55:08;;;;;;;5.20;2.20;;;;;;;24.39;41.57;100284.80;105923;1286;73652;-90
2022/05/29 11:03:58;;;;;;;2.90;1.90;;;;;;;24.35;41.80;100147.09;105942;1284;73271;-91
2022/05/29 11:10:05;;;;;;;3.50;2.30;;;;;;;24.37;41.94;100160.75;106136;1284;72187;-90
2022/05/29 11:15:50;;;;;;;4.40;2.20;;;;;;;24.39;42.13;100190.95;106152;1284;69816;-91
2022/05/29 11:18:57;;;;;;;3.20;2.10;;;;;;;24.42;42.00;100189.91;105776;1286;73487;-91
2022/05/29 11:22:15;;;;;;;4.30;1.80;;;;;;;24.44;42.24;100190.80;105990;1285;81983;-90
2022/05/29 11:28:19;;;;;;;3.50;2.20;;;;;;;24.41;42.20;100179.17;106086;1285;68256;-91
2022/05/29 11:31:22;;;;;;;2.90;2.10;;;;;;;24.46;42.42;100178.46;105943;1285;67839;-90
2022/05/29 11:34:33;;;;;;;2.80;2.00;;;;;;;24.48;42.35;100175.05;105677;1285;73334;-90
2022/05/29 11:40:47;;;;;;;4.60;2.10;;;;;;;24.40;42.54;100184.91;106005;1284;72179;-91
2022/05/29 11:43:48;;;;;;;3.20;2.10;;;;;;;24.46;42.52;100184.63;106188;1284;70063;-89
2022/05/29 11:55:12;;;;;;;5.10;2.40;;;;;;;24.47;42.90;100153.91;105786;1285;73084;-90
2022/05/29 11:58:19;;;;;;;4.30;2.70;;;;;;;24.50;42.70;100157.05;105587;1285;69917;-91
2022/05/29 12:01:30;;;;;;;4.60;2.50;;;;;;;24.49;42.68;100149.88;105938;1284;69902;-91
2022/05/29 12:04:36;;;;;;;3.50;2.70;;;;;;;24.45;42.80;100146.65;106125;1284;73633;-91
2022/05/29 12:13:16;;;;;;;3.50;2.70;;;;;;;24.54;42.98;100141.08;106116;1285;68304;-90
2022/05/29 12:16:31;;;;;;;3.50;2.70;;;;;;;24.52;42.84;100133.20;101697;1283;5554247;-90
2022/05/29 12:19:31;;;;;;;4.70;3.00;;;;;;;24.60;42.84;100137.35;106104;1284;82055;-90
2022/05/29 12:25:37;;;;;;;3.90;3.10;;;;;;;24.72;42.77;100135.90;105747;1286;69963;-90
2022/05/29 12:31:26;;;;;;;3.60;3.00;;;;;;;24.65;42.92;100128.42;106141;1284;73312;-91
2022/05/29 12:37:27;;;;;;;4.30;3.70;;;;;;;24.69;42.99;100112.13;106013;1285;72064;-90
2022/05/29 12:43:36;;;;;;;4.30;3.90;;;;;;;24.63;42.91;100105.77;106147;1284;69230;-91
2022/05/29 12:49:38;;;;;;;5.20;3.80;;;;;;;24.62;42.98;100087.16;106118;1284;82178;-91
2022/05/29 12:55:49;;;;;;;5.10;4.20;;;;;;;24.65;43.09;100076.36;106291;1284;69881;-90
2022/05/29 13:01:59;;;;;;;4.90;4.10;;;;;;;24.59;43.22;100073.34;105970;1286;73389;-91
2022/05/29 13:17:29;;;;;;;4.60;4.20;;;;;;;24.62;43.32;100050.53;105519;1286;72479;-90
2022/05/29 13:23:22;;;;;;;4.70;4.30;;;;;;;24.66;43.45;100031.23;105572;1286;72078;-91
2022/05/29 13:29:18;;;;;;;6.20;4.20;;;;;;;24.65;43.53;100012.62;105842;1284;69885;-90
2022/05/29 13:35:17;;;;;;;4.80;4.30;;;;;;;24.65;43.57;100037.78;106041;1286;82050;-89
2022/05/29 13:41:07;;;;;;;4.60;4.00;;;;;;;24.63;43.64;100048.77;106065;1284;71369;-91
2022/05/29 13:46:43;;;;;;;5.40;4.00;;;;;;;24.52;43.64;100047.66;106315;1284;73824;-91
2022/05/29 13:49:48;;;;;;;4.10;3.60;;;;;;;24.50;43.70;100013.20;106160;1284;81900;-91
2022/05/29 13:55:41;;;;;;;4.50;4.00;;;;;;;24.56;44.01;99953.45;106345;1284;69968;-90
2022/05/29 14:04:27;;;;;;;6.40;3.90;;;;;;;24.57;44.03;100018.75;105916;1285;82014;-90
2022/05/29 14:07:30;;;;;;;8.20;3.90;;;;;;;24.59;44.03;100017.53;105800;1285;72454;-91
2022/05/29 14:13:24;;;;;;;4.00;3.50;;;;;;;24.66;44.24;99998.41;106028;1284;69882;-89
2022/05/29 14:22:47;;;;;;;4.20;3.60;;;;;;;24.65;44.18;99972.81;105685;1283;74063;-91
2022/05/29 14:26:13;;;;;;;3.90;3.40;;;;;;;24.68;44.18;99960.13;105600;1285;69999;-90
2022/05/29 14:41:10;;;;;;;4.40;3.10;;;;;;;24.69;44.09;99954.30;105802;1286;67827;-91
2022/05/29 14:47:54;;;;;;;3.60;3.00;;;;;;;24.64;44.44;99982.20;105733;1285;73836;31
2022/05/29 14:56:57;;;;;;;3.10;2.70;;;;;;;24.64;44.33;99947.01;105756;1283;68176;-91
2022/05/29 15:05:26;;;;;;;3.00;2.50;;;;;;;24.69;44.32;99937.47;105916;1284;83650;-91
2022/05/29 15:14:49;;;;;;;5.50;2.50;;;;;;;24.63;44.45;99916.17;105751;1286;69894;-90
2022/05/29 15:26:41;;;;;;;3.90;2.60;;;;;;;24.65;44.29;99897.19;105627;1286;69775;31
2022/05/29 15:32:37;;;;;;;4.10;2.70;;;;;;;24.70;44.35;99970.98;105969;1284;73488;31
2022/05/29 15:38:19;;;;;;;2.30;2.10;;;;;;;24.62;44.44;99968.08;105681;1286;73599;-91
2022/05/29 15:41:54;;;;;;;3.60;2.30;;;;;;;24.64;44.50;99950.55;105659;1286;69903;-91
2022/05/29 15:48:14;;;;;;;4.60;2.70;;;;;;;24.65;44.52;99894.40;106140;1284;73189;-90
2022/05/29 15:51:25;;;;;;;4.60;2.80;;;;;;;24.60;44.53;99896.69;105955;1286;81918;-91
2022/05/29 15:54:36;;;;;;;3.80;2.50;;;;;;;24.60;44.64;99903.21;105975;1286;72064;-91
2022/05/29 15:57:52;;;;;;;3.70;2.40;;;;;;;24.66;44.79;99906.86;106100;1285;68348;-91
2022/05/29 16:00:56;;;;;;;4.90;2.60;;;;;;;24.66;44.77;99901.39;106228;1284;69840;-91
2022/05/29 16:13:05;;;;;;;5.00;2.40;;;;;;;24.63;44.81;99900.12;106113;1284;68199;-91
2022/05/29 16:19:18;;;;;;;4.70;2.30;;;;;;;24.58;44.95;99891.68;105737;1284;73212;-91
2022/05/29 16:22:18;;;;;;;3.30;2.20;;;;;;;24.62;44.90;99895.05;105892;1286;82018;-91
2022/05/29 16:28:41;;;;;;;5.80;2.50;;;;;;;24.62;45.01;99870.67;105726;1284;69916;-90
2022/05/29 16:34:43;;;;;;;5.30;2.40;;;;;;;24.60;44.99;99855.95;105838;1285;73612;-91
2022/05/29 16:48:49;;;;;;;5.20;2.20;;;;;;;24.49;45.21;99758.67;105964;1283;74268;-91
2022/05/29 16:54:50;;;;;;;2.40;2.10;;;;;;;24.57;45.10;99782.89;106007;1284;74454;-89
2022/05/29 17:00:42;;;;;;;5.30;2.30;;;;;;;24.54;45.23;99799.77;105938;1285;69905;-92
2022/05/29 17:06:19;;;;;;;4.80;2.00;;;;;;;24.59;45.39;99839.05;106094;1283;82712;-91
2022/05/29 17:15:19;;;;;;;3.60;2.00;;;;;;;24.56;45.26;99837.06;105987;1284;69873;-91
2022/05/29 17:20:58;;;;;;;3.10;1.90;;;;;;;24.60;45.43;99836.45;105823;1286;82889;-91
2022/05/29 17:26:56;;;;;;;2.30;2.10;;;;;;;24.56;45.50;99837.31;106096;1284;67247;-92
2022/05/29 17:32:56;;;;;;;7.20;2.10;;;;;;;24.61;45.59;99810.66;106092;1284;73316;-91
2022/05/29 17:38:42;;;;;;;6.60;2.10;;;;;;;24.55;45.43;99793.07;105790;1285;72782;-90
2022/05/29 17:44:28;;;;;;;6.50;2.10;;;;;;;24.59;45.69;99788.65;106282;1284;69882;-91
2022/05/29 17:47:41;;;;;;;4.10;2.40;;;;;;;24.58;45.69;99794.23;106271;1284;73331;-91
2022/05/29 17:50:46;;;;;;;2.30;2.10;;;;;;;24.54;45.60;99795.11;106072;1285;80823;-91
2022/05/29 17:54:00;;;;;;;6.30;2.50;;;;;;;24.56;45.76;99801.07;106290;1284;72280;-90
2022/05/29 18:00:01;;;;;;;3.80;2.30;;;;;;;24.59;45.76;99807.36;106224;1283;68335;-91
2022/05/29 18:05:53;;;;;;;5.20;2.20;;;;;;;24.54;45.78;99788.21;106173;1283;81984;-91
2022/05/29 18:11:48;;;;;;;4.50;2.40;;;;;;;24.57;45.96;99773.77;106265;1284;69881;-90
2022/05/29 18:17:29;;;;;;;3.50;2.20;;;;;;;24.52;45.82;99776.04;105962;1285;73262;-90
2022/05/29 18:23:35;;;;;;;3.40;2.20;;;;;;;24.57;46.01;99787.58;105922;1286;72042;-90
2022/05/29 18:29:12;;;;;;;3.80;2.30;;;;;;;24.54;45.99;99785.88;105623;1287;69871;-91
2022/05/29 18:34:49;;;;;;;7.10;2.70;;;;;;;24.57;46.25;99774.40;105820;1287;81948;-91
2022/05/29 18:40:48;;;;;;;4.30;2.90;;;;;;;24.53;46.20;99776.36;105570;1287;69992;-92
2022/05/29 18:49:49;;;;;;;7.90;3.20;;;;;;;24.53;46.37;99803.21;105611;1286;81893;-91
2022/05/29 18:52:57;;;;;;;5.50;3.20;;;;;;;24.52;46.49;99805.23;106107;1286;72028;-91
2022/05/29 19:01:50;;;;;;;5.10;3.40;;;;;;;24.53;46.65;99773.75;105972;1284;73015;31
2022/05/29 19:04:54;;;;;;;6.70;3.40;;;;;;;24.52;46.63;99769.19;105795;1284;81708;-92
2022/05/29 19:10:33;;;;;;;3.80;3.40;;;;;;;24.45;46.73;99776.51;105993;1284;67883;-90
2022/05/29 19:13:50;;;;;;;6.10;3.50;;;;;;;24.48;46.84;99779.38;105723;1284;69893;31
2022/05/29 19:19:48;;;;;;;11.40;4.50;;;;;;;24.50;46.73;99798.50;105712;1286;81803;31
2022/05/29 19:25:32;;;;;;;5.80;3.90;;;;;;;24.50;46.73;99799.63;105640;1283;69864;-91
2022/05/29 19:35:05;;;;;;;6.90;4.20;;;;;;;24.46;46.97;99820.35;105512;1287;84548;-91
2022/05/29 19:38:08;;;;;;;7.70;4.00;;;;;;;24.45;46.85;99838.83;106062;1286;72407;-90
2022/05/29 19:44:00;;;;;;;5.30;4.10;;;;;;;24.38;46.75;99867.07;106198;1284;68540;-89
2022/05/29 19:47:08;;;;;;;6.00;4.30;;;;;;;24.35;46.78;99863.52;106019;1283;73259;-90
2022/05/29 19:53:01;;;;;;;6.80;4.70;;;;;;;24.41;46.96;99855.56;106233;1284;72218;-89
2022/05/29 19:58:52;;;;;;;7.10;4.30;;;;;;;24.45;46.94;99863.66;105781;1286;69803;-91
2022/05/29 20:02:20;;;;;;;6.30;4.30;;;;;;;24.42;47.11;99871.67;106317;1284;73461;-90
2022/05/29 20:08:06;;;;;;;6.30;4.40;;;;;;;24.45;47.08;99899.87;106265;1284;73592;-91
2022/05/29 20:11:11;;;;;;;6.50;4.30;;;;;;;24.47;46.90;99900.08;106090;1283;69807;-91
2022/05/29 20:14:14;;;;;;;5.70;4.60;;;;;;;24.46;46.83;99906.84;106533;1284;67722;-89
2022/05/29 20:20:06;;;;;;;6.00;4.00;;;;;;;24.45;47.14;99919.73;106203;1283;82485;-91
2022/05/29 20:25:58;;;;;;;6.10;4.50;;;;;;;24.49;46.88;99935.43;105859;1284;69934;-91
2022/05/29 20:31:47;;;;;;;5.70;4.10;;;;;;;24.42;47.03;99934.65;105971;1286;73346;-91
2022/05/29 20:37:35;;;;;;;9.10;4.70;;;;;;;24.47;46.91;99933.18;106134;1284;72360;31
2022/05/29 20:43:33;;;;;;;6.00;4.40;;;;;;;24.41;46.68;99947.41;105876;1285;68556;31
2022/05/29 20:49:12;;;;;;;6.90;4.10;;;;;;;24.43;46.89;99943.82;105918;1283;82132;-91
2022/05/29 20:54:47;;;;;;;8.40;4.50;;;;;;;24.42;46.83;99926.73;105630;1284;69826;-90
2022/05/29 21:00:35;;;;;;;6.00;4.00;;;;;;;24.40;46.54;99934.96;105983;1284;73782;-90
2022/05/29 21:03:38;;;;;;;5.00;4.20;;;;;;;24.42;46.64;99939.85;105994;1284;82104;-91
2022/05/29 21:09:30;;;;;;;4.90;3.90;;;;;;;24.39;46.45;99970.92;106084;1283;70024;-92
2022/05/29 21:12:31;;;;;;;5.60;3.80;;;;;;;24.38;46.75;100006.58;105832;1285;69776;-89
2022/05/29 21:15:31;;;;;;;5.10;4.00;;;;;;;24.42;46.58;100045.62;105747;1285;73689;-91
2022/05/29 21:21:08;;;;;;;6.70;3.80;;;;;;;24.40;46.33;100076.41;106016;1284;74406;-91
2022/05/29 21:26:49;;;;;;;5.70;3.70;;;;;;;24.42;46.44;100046.15;106005;1284;70030;-91
2022/05/29 21:32:26;;;;;;;6.20;3.70;;;;;;;24.41;46.19;100051.77;105982;1283;84960;-91
2022/05/29 21:35:30;;;;;;;4.40;3.60;;;;;;;24.39;46.31;100049.27;106133;1283;71926;-91
2022/05/29 21:41:37;;;;;;;3.80;3.40;;;;;;;24.41;45.84;100029.39;106021;1285;69966;-91
2022/05/29 21:47:12;;;;;;;4.20;3.20;;;;;;;24.37;45.88;100010.60;105861;1285;81982;-91
2022/05/29 21:50:15;;;;;;;4.10;3.00;;;;;;;24.34;45.75;100000.42;105957;1284;72398;-91
2022/05/29 21:53:17;;;;;;;4.50;3.50;;;;;;;24.37;45.75;100000.13;105864;1284;69979;-91
2022/05/29 21:56:19;;;;;;;4.10;3.20;;;;;;;24.36;45.75;100005.27;106057;1286;68323;-91
2022/05/29 22:01:58;;;;;;;4.50;3.00;;;;;;;24.31;45.50;99980.45;106199;1283;83139;-89
2022/05/29 22:05:01;;;;;;;4.60;3.00;;;;;;;24.33;45.60;99965.19;105918;1284;72109;-91
2022/05/29 22:10:52;;;;;;;5.30;3.30;;;;;;;24.34;45.21;99944.50;105962;1284;69903;-89
2022/05/29 22:16:39;;;;;;;4.70;2.80;;;;;;;24.29;45.28;99941.78;105996;1284;81807;-91
2022/05/29 22:22:36;;;;;;;4.30;3.50;;;;;;;24.32;45.21;99932.48;106057;1283;69867;-90
2022/05/29 22:28:15;;;;;;;4.40;3.00;;;;;;;24.30;45.09;99921.36;106003;1284;73365;-91
2022/05/29 22:33:51;;;;;;;5.40;3.30;;;;;;;24.26;44.98;99905.25;107872;1283;72305;-90
2022/05/29 22:37:14;;;;;;;6.30;3.40;;;;;;;24.26;45.27;99899.55;107648;1284;66939;-91
2022/05/29 22:42:53;;;;;;;3.90;3.20;;;;;;;24.23;45.21;99876.83;107821;1283;67564;-92
2022/05/29 22:48:38;;;;;;;5.50;3.50;;;;;;;24.20;45.01;99868.36;107664;1283;73261;-92
2022/05/29 22:51:44;;;;;;;5.50;3.40;;;;;;;24.27;45.21;99855.09;107788;1284;67714;-91
2022/05/29 22:54:45;;;;;;;5.40;3.70;;;;;;;24.31;44.99;99849.80;107864;1284;67150;-92
2022/05/29 23:03:57;;;;;;;5.70;3.30;;;;;;;24.31;45.22;99842.73;107847;1283;72520;-91
2022/05/29 23:07:01;;;;;;;7.70;4.10;;;;;;;24.32;45.15;99837.70;107783;1283;67351;-91
2022/05/29 23:12:54;;;;;;;6.30;3.60;;;;;;;24.28;45.23;99828.60;107911;1283;67712;-91
2022/05/29 23:27:13;;;;;;;5.70;4.00;;;;;;;24.31;45.38;99788.89;107481;1288;72672;-91
2022/05/29 23:33:08;;;;;;;6.70;4.20;;;;;;;24.35;45.54;99795.42;107843;1283;72203;-90
2022/05/29 23:43:05;;;;;;;5.30;4.00;;;;;;;24.29;45.40;99783.48;107586;1286;72688;-89
2022/05/29 23:46:26;;;;;;;;;;;;;;;24.27;45.58;99781.73;107758;1284;81934;-90
2022/05/29 23:52:10;;;;;;;5.80;4.00;;;;;;;24.23;45.64;99773.31;107785;1283;67548;-90
2022/05/29 23:58:02;;;;;;;8.20;4.10;;;;;;;24.26;45.69;99794.91;107803;1283;74292;-86
